Shady Grove, Texas
Current Conditions -  °F | °C
As of 2:01 AM on Sunday 21 Dec 2014 (Local Time) from KLFK Reporting Station
Haze Haze  
Wind Chill: 42°   Ceiling: 4400
Heat Index: 42°   Visibility: 3mi
Dew Point: 38°   Wind: 0mph
Humidity: 85%   Direction: NA
Pressure: 30.17"   Gusts: NA
Location:  31.1753°N, 94.7371°W
Report Text: KLFK 210801Z AUTO 00000KT 3SM BR BKN044 06/03 A3017 RMK AO2 T00560033
Loading
Personal Weather Stations






























Interactive Weather Map New forecast layout! Learn more

10-Day Weather Forecast

Advertisements
Track Severe Weather on mobile